Time;durP1;ratioP1;P1;durP2;ratioP2;P2;SDS_P1;SDS_P2;PMS_P1;PMS_P2;Temp;Humidity;BMP_temperature;BMP_pressure;BME280_temperature;BME280_humidity;BME280_pressure;Samples;Min_cycle;Max_cycle;Signal;HPM_P1;HPM_P2
2021/08/14 00:00:50;;;;;;;3.28;2.35;;;17.00;99.90;;;;;;4988104;28;21153;-80
2021/08/14 00:03:17;;;;;;;2.95;2.30;;;16.90;99.90;;;;;;4985357;28;20274;-79
2021/08/14 00:05:42;;;;;;;2.92;2.20;;;16.80;99.90;;;;;;4989327;28;20183;-79
2021/08/14 00:08:08;;;;;;;2.72;2.25;;;16.80;99.90;;;;;;4987731;28;20207;-81
2021/08/14 00:10:33;;;;;;;3.88;2.70;;;16.80;99.90;;;;;;4990257;28;20188;-83
2021/08/14 00:12:59;;;;;;;2.63;2.08;;;16.90;99.90;;;;;;4987742;28;20196;-78
2021/08/14 00:15:25;;;;;;;2.80;2.20;;;16.90;99.90;;;;;;4989694;28;20589;-80
2021/08/14 00:17:50;;;;;;;2.53;2.05;;;16.90;99.90;;;;;;4989059;28;20201;-81
2021/08/14 00:20:16;;;;;;;2.37;2.00;;;16.90;99.90;;;;;;4954227;28;1075939;-82
2021/08/14 00:22:42;;;;;;;2.83;2.17;;;16.90;99.90;;;;;;4988964;28;20426;-80
2021/08/14 00:25:08;;;;;;;2.75;1.90;;;16.90;99.90;;;;;;4990720;28;20195;-80
2021/08/14 00:27:34;;;;;;;2.55;2.33;;;16.80;99.90;;;;;;5005025;28;20267;-80
2021/08/14 00:29:59;;;;;;;2.55;2.20;;;16.70;99.90;;;;;;4990691;28;20599;-78
2021/08/14 00:32:25;;;;;;;3.40;2.25;;;16.60;99.90;;;;;;4988966;28;20264;-81
2021/08/14 00:34:50;;;;;;;3.28;2.38;;;16.60;99.90;;;;;;4989988;28;20862;-80
2021/08/14 00:37:16;;;;;;;2.85;2.00;;;16.60;99.90;;;;;;4988987;28;20208;-79
2021/08/14 00:39:42;;;;;;;3.00;2.08;;;16.50;99.90;;;;;;4991182;28;21471;-81
2021/08/14 00:42:07;;;;;;;3.00;2.33;;;16.40;99.90;;;;;;4989132;28;20247;-82
2021/08/14 00:44:34;;;;;;;2.80;2.15;;;16.30;99.90;;;;;;4988464;28;20225;-79
2021/08/14 00:47:02;;;;;;;4.13;2.30;;;16.20;99.90;;;;;;4988662;28;20211;-80
2021/08/14 00:49:27;;;;;;;3.65;1.92;;;16.20;99.90;;;;;;4989386;28;20186;-82
2021/08/14 00:51:53;;;;;;;3.60;2.30;;;16.10;99.90;;;;;;4988485;28;20287;-79
2021/08/14 00:54:19;;;;;;;2.70;2.28;;;;;;;;;;4990175;28;20211;-80
2021/08/14 00:56:45;;;;;;;3.40;1.92;;;15.70;99.90;;;;;;4988927;28;20180;-81
2021/08/14 00:59:11;;;;;;;3.33;2.25;;;15.60;99.90;;;;;;4990026;28;20184;-81
2021/08/14 01:01:38;;;;;;;3.28;2.30;;;15.60;99.90;;;;;;4988424;28;20195;-81
2021/08/14 01:04:04;;;;;;;4.82;2.40;;;15.50;99.90;;;;;;4987612;28;20233;-79
2021/08/14 01:06:30;;;;;;;3.38;2.28;;;15.60;99.90;;;;;;4990187;28;20188;-83
2021/08/14 01:08:56;;;;;;;3.33;2.25;;;15.70;99.90;;;;;;4988040;28;20250;-78
2021/08/14 01:11:23;;;;;;;3.65;2.35;;;15.50;99.90;;;;;;4988417;28;20208;-81
2021/08/14 01:13:49;;;;;;;2.88;2.15;;;15.50;99.90;;;;;;4987990;28;20200;-80
2021/08/14 01:16:15;;;;;;;3.85;2.35;;;15.40;99.90;;;;;;4989554;28;20575;-81
2021/08/14 01:18:42;;;;;;;2.72;2.20;;;15.40;99.90;;;;;;4989637;28;20215;-82
2021/08/14 01:21:08;;;;;;;3.22;2.42;;;15.40;99.90;;;;;;4987818;28;20184;-81
2021/08/14 01:23:34;;;;;;;3.50;2.30;;;15.40;99.90;;;;;;4987384;28;20198;-79
2021/08/14 01:26:08;;;;;;;3.08;2.00;;;15.30;99.90;;;;;;4987079;28;20640;-81
2021/08/14 01:28:36;;;;;;;2.60;2.15;;;15.40;99.90;;;;;;4988543;28;20211;-79
2021/08/14 01:31:06;;;;;;;3.42;2.55;;;15.40;99.90;;;;;;4987046;28;20192;-79
2021/08/14 01:33:34;;;;;;;2.70;2.50;;;15.40;99.90;;;;;;4986899;28;20600;-80
2021/08/14 01:36:01;;;;;;;3.85;1.98;;;15.30;99.90;;;;;;4996387;28;20294;-79
2021/08/14 01:38:27;;;;;;;3.58;2.28;;;15.30;99.90;;;;;;4986860;28;20241;-77
2021/08/14 01:40:52;;;;;;;3.13;2.55;;;15.20;99.90;;;;;;4988667;28;20223;-79
2021/08/14 01:43:20;;;;;;;2.25;2.03;;;15.30;99.90;;;;;;4987779;28;20558;-79
2021/08/14 01:45:47;;;;;;;2.72;1.95;;;15.30;99.90;;;;;;4986289;28;20210;-79
2021/08/14 01:48:12;;;;;;;1.77;1.60;;;15.30;99.90;;;;;;4987962;28;20204;-79
2021/08/14 01:50:38;;;;;;;3.25;1.95;;;15.20;99.90;;;;;;4988298;28;20211;-79
2021/08/14 01:53:03;;;;;;;2.35;2.15;;;15.20;99.90;;;;;;4986850;28;20242;-79
2021/08/14 01:55:29;;;;;;;1.80;1.70;;;15.10;99.90;;;;;;4987705;28;20751;-78
2021/08/14 01:57:54;;;;;;;2.95;2.20;;;15.00;99.90;;;;;;4986495;28;20279;-79
2021/08/14 02:00:20;;;;;;;4.45;2.40;;;14.80;99.90;;;;;;4986502;28;21119;-80
2021/08/14 02:02:46;;;;;;;3.47;2.25;;;14.70;99.90;;;;;;4986369;28;20264;-80
2021/08/14 02:05:11;;;;;;;3.47;2.17;;;14.80;99.90;;;;;;4987214;28;20184;-80
2021/08/14 02:07:37;;;;;;;3.55;2.08;;;14.90;99.90;;;;;;4985953;28;20208;-80
2021/08/14 02:10:03;;;;;;;3.08;2.17;;;14.80;99.90;;;;;;4986309;28;20191;-78
2021/08/14 02:12:29;;;;;;;2.50;2.00;;;14.80;99.90;;;;;;4987910;28;20193;-78
2021/08/14 02:14:55;;;;;;;4.20;1.83;;;14.70;99.90;;;;;;4986484;28;20266;-79
2021/08/14 02:17:20;;;;;;;2.30;1.80;;;14.70;99.90;;;;;;4987661;28;20210;-78
2021/08/14 02:19:46;;;;;;;2.70;2.20;;;14.70;99.90;;;;;;4986070;28;20255;-79
2021/08/14 02:22:11;;;;;;;4.82;2.38;;;14.70;99.90;;;;;;4986390;28;20274;-79
2021/08/14 02:24:37;;;;;;;2.47;2.28;;;14.70;99.90;;;;;;4986030;28;20188;-81
2021/08/14 02:27:03;;;;;;;3.05;1.70;;;14.70;99.90;;;;;;4986966;28;20204;-78
2021/08/14 02:29:30;;;;;;;4.47;2.13;;;14.60;99.90;;;;;;4986020;28;20184;-82
2021/08/14 02:31:56;;;;;;;7.18;2.20;;;14.50;99.90;;;;;;4985944;28;20187;-80
2021/08/14 02:34:21;;;;;;;3.15;2.15;;;14.50;99.90;;;;;;4986552;28;20188;-80
2021/08/14 02:36:47;;;;;;;2.75;2.17;;;14.40;99.90;;;;;;4986936;28;20694;-79
2021/08/14 02:39:13;;;;;;;4.18;1.98;;;14.40;99.90;;;;;;4986808;28;20180;-78
2021/08/14 02:41:38;;;;;;;2.83;1.75;;;14.50;99.90;;;;;;4987021;28;20220;-81
2021/08/14 02:44:04;;;;;;;2.15;1.90;;;14.40;99.90;;;;;;4985984;28;20290;-82
2021/08/14 02:46:29;;;;;;;2.28;1.75;;;14.40;99.90;;;;;;4988633;28;20184;-82
2021/08/14 02:48:55;;;;;;;3.38;2.10;;;14.30;99.90;;;;;;4986029;28;20312;-79
2021/08/14 02:51:20;;;;;;;2.65;2.17;;;14.40;99.90;;;;;;4988208;28;20176;-79
2021/08/14 02:53:46;;;;;;;3.03;2.20;;;14.40;99.90;;;;;;4987725;28;21206;-80
2021/08/14 02:56:12;;;;;;;6.25;2.08;;;14.40;99.90;;;;;;4985696;28;20289;-82
2021/08/14 02:58:38;;;;;;;2.72;1.92;;;14.40;99.90;;;;;;4987156;28;20218;-83
2021/08/14 03:01:04;;;;;;;2.28;1.67;;;14.40;99.90;;;;;;4987451;28;20183;-82
2021/08/14 03:03:29;;;;;;;3.28;2.10;;;14.40;99.90;;;;;;4987047;28;20184;-81
2021/08/14 03:05:55;;;;;;;3.83;1.70;;;14.30;99.90;;;;;;4985889;28;21129;-78
2021/08/14 03:08:20;;;;;;;2.65;2.30;;;14.40;99.90;;;;;;4986335;28;20207;-79
2021/08/14 03:10:46;;;;;;;1.80;1.67;;;14.30;99.90;;;;;;4986665;28;20196;-79
2021/08/14 03:13:13;;;;;;;2.53;2.20;;;14.30;99.90;;;;;;4987084;28;20202;-81
2021/08/14 03:15:39;;;;;;;3.67;2.40;;;14.20;99.90;;;;;;4994277;28;20667;-80
2021/08/14 03:18:05;;;;;;;2.60;2.33;;;14.20;99.90;;;;;;4985800;28;20759;-80
2021/08/14 03:20:32;;;;;;;2.22;1.90;;;14.00;99.90;;;;;;4985881;28;20196;-82
2021/08/14 03:22:58;;;;;;;3.67;2.47;;;14.00;99.90;;;;;;4993663;28;20271;-79
2021/08/14 03:25:24;;;;;;;3.50;2.65;;;13.80;99.90;;;;;;4986396;28;20628;-81
2021/08/14 03:27:49;;;;;;;3.75;2.47;;;13.60;99.90;;;;;;4978417;28;20204;-78
2021/08/14 03:30:16;;;;;;;2.83;2.03;;;13.50;99.90;;;;;;4986124;28;20184;-81
2021/08/14 03:32:42;;;;;;;2.78;2.30;;;13.40;99.90;;;;;;4985850;28;20246;-78
2021/08/14 03:35:08;;;;;;;3.25;2.80;;;13.30;99.90;;;;;;4989749;28;20227;-80
2021/08/14 03:37:34;;;;;;;3.17;1.98;;;13.30;99.90;;;;;;4984670;28;20232;-81
2021/08/14 03:40:00;;;;;;;3.47;1.95;;;13.40;99.90;;;;;;4983236;28;20222;-80
2021/08/14 03:42:25;;;;;;;3.60;2.22;;;13.50;99.90;;;;;;4983636;28;20180;-83
2021/08/14 03:44:53;;;;;;;3.33;2.42;;;13.50;99.90;;;;;;4984627;28;20188;-84
2021/08/14 03:47:18;;;;;;;3.30;2.50;;;13.50;99.90;;;;;;4983883;28;20254;-81
2021/08/14 03:49:44;;;;;;;4.25;2.50;;;13.60;99.90;;;;;;4983672;28;20547;-80
2021/08/14 03:52:09;;;;;;;5.32;2.42;;;13.70;99.90;;;;;;4983397;28;20190;-79
2021/08/14 03:54:35;;;;;;;3.72;2.53;;;13.70;99.90;;;;;;4982908;28;20955;-81
2021/08/14 03:57:01;;;;;;;3.75;2.30;;;13.60;99.90;;;;;;4983672;28;20299;-82
2021/08/14 03:59:26;;;;;;;2.55;1.95;;;13.70;99.90;;;;;;4985977;28;20184;-81
2021/08/14 04:01:52;;;;;;;2.35;2.13;;;13.70;99.90;;;;;;4984894;28;20188;-79
2021/08/14 04:04:18;;;;;;;2.60;2.05;;;13.60;99.90;;;;;;4985007;28;20180;-81
2021/08/14 04:06:43;;;;;;;2.95;2.22;;;13.70;99.90;;;;;;4985641;28;20306;-82
2021/08/14 04:09:09;;;;;;;4.38;2.63;;;13.60;99.90;;;;;;4987332;28;20188;-82
2021/08/14 04:11:35;;;;;;;6.60;3.00;;;13.60;99.90;;;;;;4985746;28;20249;-80
2021/08/14 04:14:00;;;;;;;3.25;2.40;;;13.60;99.90;;;;;;4985527;28;20288;-81
2021/08/14 04:16:26;;;;;;;3.90;2.58;;;13.60;99.90;;;;;;4985770;28;20215;-80
2021/08/14 04:18:51;;;;;;;3.60;2.47;;;13.50;99.90;;;;;;4985904;28;20738;-84
2021/08/14 04:21:17;;;;;;;2.45;2.17;;;13.60;99.90;;;;;;4987024;28;20183;-81
2021/08/14 04:23:42;;;;;;;4.07;2.40;;;13.50;99.90;;;;;;4986121;28;20184;-81
2021/08/14 04:26:08;;;;;;;3.90;2.15;;;13.60;99.90;;;;;;4985686;28;20278;-81
2021/08/14 04:28:33;;;;;;;2.67;2.22;;;13.60;99.90;;;;;;4985518;28;20875;-83
2021/08/14 04:30:59;;;;;;;3.60;2.50;;;13.60;99.90;;;;;;4985309;28;20192;-81
2021/08/14 04:33:24;;;;;;;3.30;2.28;;;13.60;99.90;;;;;;4985248;28;20223;-80
2021/08/14 04:35:50;;;;;;;2.58;2.03;;;13.70;99.90;;;;;;4985008;28;20200;-81
2021/08/14 04:38:16;;;;;;;3.45;1.92;;;13.80;99.90;;;;;;4986165;28;20204;-81
2021/08/14 04:40:41;;;;;;;3.88;1.98;;;14.00;99.90;;;;;;4989535;28;20185;-80
2021/08/14 04:43:07;;;;;;;3.80;1.98;;;14.00;99.90;;;;;;4988188;28;20211;-79
2021/08/14 04:45:32;;;;;;;4.28;2.00;;;14.10;99.90;;;;;;4988326;28;20300;-81
2021/08/14 04:47:58;;;;;;;2.92;1.90;;;14.20;99.90;;;;;;4988192;28;20212;-80
2021/08/14 04:50:24;;;;;;;4.63;2.70;;;14.40;99.90;;;;;;4988701;28;20279;-80
2021/08/14 04:52:49;;;;;;;2.90;1.88;;;14.40;99.90;;;;;;4987612;28;20188;-83
2021/08/14 04:55:15;;;;;;;2.75;2.03;;;14.60;99.90;;;;;;4988020;28;20203;-83
2021/08/14 04:57:40;;;;;;;3.17;2.25;;;14.80;99.90;;;;;;4989126;28;20219;-81
2021/08/14 05:00:07;;;;;;;2.90;2.13;;;15.00;99.90;;;;;;4988661;28;20204;-81
2021/08/14 05:02:32;;;;;;;3.35;2.15;;;15.10;99.90;;;;;;4989460;28;20263;-81
2021/08/14 05:04:58;;;;;;;2.35;1.85;;;15.30;99.90;;;;;;4988277;28;20382;-81
2021/08/14 05:07:24;;;;;;;3.63;1.75;;;15.50;99.90;;;;;;4987542;28;20212;-81
2021/08/14 05:09:50;;;;;;;2.60;2.00;;;16.00;99.90;;;;;;4987776;28;20192;-81
2021/08/14 05:12:16;;;;;;;3.25;1.80;;;16.40;99.90;;;;;;4986929;28;20192;-80
2021/08/14 05:14:42;;;;;;;2.88;1.83;;;16.70;99.90;;;;;;4988929;28;20204;-80
2021/08/14 05:17:08;;;;;;;2.25;1.63;;;16.90;99.90;;;;;;4987444;28;20617;-81
2021/08/14 05:19:34;;;;;;;3.75;1.58;;;16.90;99.90;;;;;;5004331;28;20211;-81
2021/08/14 05:22:00;;;;;;;4.22;2.00;;;16.70;99.90;;;;;;4987772;28;20196;-81
2021/08/14 05:24:25;;;;;;;4.00;2.30;;;16.70;99.90;;;;;;4987380;28;20663;-81
2021/08/14 05:26:51;;;;;;;2.95;2.20;;;16.60;99.90;;;;;;4979543;28;20191;-81
2021/08/14 05:29:16;;;;;;;2.00;1.58;;;16.60;99.90;;;;;;4988316;28;20271;-81
2021/08/14 05:31:42;;;;;;;2.47;1.90;;;16.60;99.90;;;;;;4987046;28;20194;-81
2021/08/14 05:34:08;;;;;;;2.25;1.92;;;16.70;99.90;;;;;;4986196;28;20238;-82
2021/08/14 05:36:34;;;;;;;3.17;1.67;;;16.80;99.90;;;;;;4987069;28;20732;-80
2021/08/14 05:38:59;;;;;;;2.95;2.17;;;16.90;99.90;;;;;;4988046;28;20216;-83
2021/08/14 05:41:25;;;;;;;2.47;1.60;;;17.20;99.90;;;;;;4989037;28;20211;-83
2021/08/14 05:43:50;;;;;;;2.67;1.98;;;17.10;99.90;;;;;;4989515;28;20358;-84
2021/08/14 05:46:16;;;;;;;3.00;1.80;;;17.40;99.90;;;;;;4987323;28;20187;-81
2021/08/14 05:48:42;;;;;;;3.00;2.13;;;17.60;99.90;;;;;;4985841;28;20208;-77
2021/08/14 05:51:11;;;;;;;3.45;2.03;;;18.10;99.90;;;;;;4983718;28;20180;-76
2021/08/14 05:53:37;;;;;;;3.28;1.95;;;18.40;99.90;;;;;;4984402;28;20246;-77
2021/08/14 05:56:02;;;;;;;2.08;1.52;;;18.60;99.90;;;;;;4986007;28;20686;-77
2021/08/14 05:58:28;;;;;;;3.75;1.52;;;18.90;99.90;;;;;;4984499;28;20196;-77
2021/08/14 06:00:53;;;;;;;1.75;1.55;;;19.10;99.90;;;;;;4986487;28;20326;-77
2021/08/14 06:03:19;;;;;;;1.55;1.15;;;19.10;99.90;;;;;;4986122;28;20553;-78
2021/08/14 06:05:45;;;;;;;3.38;1.90;;;18.90;99.90;;;;;;4986199;28;20563;-77
2021/08/14 06:08:11;;;;;;;3.50;1.95;;;18.80;99.90;;;;;;4984819;28;20219;-77
2021/08/14 06:10:37;;;;;;;2.22;1.40;;;18.80;99.90;;;;;;4987240;28;20188;-77
2021/08/14 06:13:02;;;;;;;2.45;1.50;;;18.90;99.90;;;;;;4986536;28;20195;-77
2021/08/14 06:15:29;;;;;;;2.85;1.58;;;18.90;99.90;;;;;;4986922;28;20291;-77
2021/08/14 06:17:55;;;;;;;2.45;1.55;;;19.50;99.90;;;;;;4986248;28;20208;-78
2021/08/14 06:20:20;;;;;;;4.00;1.20;;;20.50;99.90;;;;;;4987943;28;20290;-78
2021/08/14 06:22:46;;;;;;;4.45;1.52;;;21.10;99.90;;;;;;4987560;28;20258;-77
2021/08/14 06:25:12;;;;;;;1.58;1.27;;;22.00;99.90;;;;;;4987316;28;20181;-78
2021/08/14 06:27:38;;;;;;;4.07;1.70;;;22.80;99.90;;;;;;4988703;28;20215;-77
2021/08/14 06:30:05;;;;;;;2.03;1.40;;;23.30;99.90;;;;;;5002519;28;20188;-77
2021/08/14 06:32:31;;;;;;;5.10;1.80;;;23.80;99.90;;;;;;4988551;28;20419;-74
2021/08/14 06:34:57;;;;;;;2.15;1.20;;;23.90;99.90;;;;;;4985057;28;20772;-78
2021/08/14 06:37:22;;;;;;;2.78;1.45;;;24.30;99.90;;;;;;4986504;28;20224;-77
2021/08/14 06:39:48;;;;;;;3.75;2.00;;;24.30;99.90;;;;;;4988334;28;20689;-77
2021/08/14 06:42:13;;;;;;;2.22;1.40;;;24.20;99.90;;;;;;4987595;28;20270;-77
2021/08/14 06:44:39;;;;;;;3.20;1.40;;;23.90;99.90;;;;;;4987191;28;20251;-77
2021/08/14 06:47:05;;;;;;;3.75;1.50;;;23.30;99.90;;;;;;4985637;28;20200;-76
2021/08/14 06:49:31;;;;;;;3.08;1.50;;;22.80;99.90;;;;;;4984628;28;20195;-76
2021/08/14 06:51:56;;;;;;;3.42;1.60;;;22.50;99.90;;;;;;4982900;28;20210;-76
2021/08/14 06:54:22;;;;;;;2.10;1.55;;;22.10;99.90;;;;;;4983400;28;20195;-75
2021/08/14 06:56:47;;;;;;;1.95;1.30;;;21.90;99.90;;;;;;4981538;28;20463;-76
2021/08/14 06:59:13;;;;;;;1.98;1.17;;;21.60;99.90;;;;;;4983833;28;20184;-76
2021/08/14 07:01:39;;;;;;;2.90;1.50;;;21.50;99.90;;;;;;4983618;28;20189;-76
2021/08/14 07:04:04;;;;;;;1.63;1.23;;;21.50;99.90;;;;;;4983016;28;20184;-76
2021/08/14 07:06:30;;;;;;;2.00;1.50;;;21.60;99.90;;;;;;4982405;28;20188;-76
2021/08/14 07:08:56;;;;;;;2.83;1.30;;;21.60;99.90;;;;;;4983424;28;21046;-75
2021/08/14 07:11:22;;;;;;;1.50;1.35;;;21.70;99.90;;;;;;4983718;28;20195;-76
2021/08/14 07:13:50;;;;;;;2.83;1.25;;;21.80;99.90;;;;;;4983025;28;20366;-75
2021/08/14 07:16:16;;;;;;;2.85;1.30;;;21.70;99.90;;;;;;4981789;28;20216;-76
2021/08/14 07:18:42;;;;;;;1.95;1.38;;;21.70;99.90;;;;;;4983441;28;20200;-76
2021/08/14 07:21:07;;;;;;;4.03;1.80;;;21.80;99.90;;;;;;4983832;28;20666;-76
2021/08/14 07:23:33;;;;;;;3.40;1.35;;;21.90;99.90;;;;;;4983357;28;20187;-76
2021/08/14 07:25:59;;;;;;;5.57;1.42;;;22.10;99.90;;;;;;4982077;28;20184;-76
2021/08/14 07:28:26;;;;;;;3.45;1.30;;;22.10;99.90;;;;;;4982476;28;20642;-76
2021/08/14 07:30:52;;;;;;;2.70;1.20;;;22.30;99.90;;;;;;4983860;28;20192;-75
2021/08/14 07:33:18;;;;;;;3.60;1.70;;;22.50;99.90;;;;;;4983039;28;20192;-76
2021/08/14 07:35:44;;;;;;;2.33;1.40;;;22.50;99.90;;;;;;4983803;28;20229;-76
2021/08/14 07:38:10;;;;;;;4.07;1.98;;;22.60;99.90;;;;;;4982978;28;20200;-76
2021/08/14 07:40:36;;;;;;;7.50;2.20;;;22.60;99.90;;;;;;4984099;28;20261;-76
2021/08/14 07:43:02;;;;;;;4.53;1.90;;;22.80;99.90;;;;;;4983005;28;20321;-77
2021/08/14 07:45:29;;;;;;;2.17;1.52;;;22.90;99.90;;;;;;4983558;28;20559;-76
2021/08/14 07:47:55;;;;;;;4.18;2.00;;;22.90;99.90;;;;;;4981591;28;20216;-76
2021/08/14 07:50:27;;;;;;;5.60;2.33;;;23.10;99.90;;;;;;4983490;28;20199;-77
2021/08/14 07:52:53;;;;;;;4.13;1.92;;;23.30;99.90;;;;;;4982650;28;20205;-76
2021/08/14 07:55:20;;;;;;;6.47;2.45;;;23.50;99.90;;;;;;4982937;28;21140;-76
2021/08/14 07:57:46;;;;;;;2.20;1.00;;;23.70;99.90;;;;;;4983407;28;20200;-76
2021/08/14 08:00:18;;;;;;;1.70;1.40;;;24.00;99.90;;;;;;4987014;28;20176;-82
2021/08/14 08:02:44;;;;;;;2.90;1.38;;;24.40;99.90;;;;;;4985875;28;20561;-83
2021/08/14 08:05:11;;;;;;;2.63;1.20;;;24.70;99.90;;;;;;4982366;28;20203;-81
2021/08/14 08:07:40;;;;;;;2.63;1.10;;;24.80;99.90;;;;;;4984286;28;20369;-81
2021/08/14 08:10:07;;;;;;;2.72;1.35;;;24.90;99.90;;;;;;4983418;28;20658;-81
2021/08/14 08:12:33;;;;;;;2.17;1.20;;;24.90;99.90;;;;;;4982800;28;20199;-81
2021/08/14 08:14:59;;;;;;;3.05;1.65;;;25.10;99.90;;;;;;4986354;28;20583;-81
2021/08/14 08:17:24;;;;;;;3.08;1.30;;;25.40;99.90;;;;;;4986209;28;20238;-81
2021/08/14 08:19:50;;;;;;;1.38;1.25;;;25.50;99.90;;;;;;4986469;28;20208;-80
2021/08/14 08:22:15;;;;;;;2.08;1.63;;;25.80;99.90;;;;;;4986432;28;20604;-81
2021/08/14 08:24:41;;;;;;;2.30;1.17;;;25.80;99.90;;;;;;4985974;28;20429;-81
2021/08/14 08:27:06;;;;;;;2.53;1.60;;;25.70;99.90;;;;;;4987197;28;20824;-81
2021/08/14 08:29:32;;;;;;;2.05;1.13;;;25.30;99.90;;;;;;4986162;28;20551;-80
2021/08/14 08:31:57;;;;;;;2.67;2.13;;;25.20;99.90;;;;;;4987074;28;20220;-81
2021/08/14 08:34:26;;;;;;;3.03;1.40;;;25.20;99.90;;;;;;4986288;28;20564;-80
2021/08/14 08:36:52;;;;;;;2.30;1.30;;;25.00;99.90;;;;;;4986825;28;20425;-83
2021/08/14 08:39:18;;;;;;;2.88;1.25;;;24.80;99.90;;;;;;4985344;28;20237;-82
2021/08/14 08:41:43;;;;;;;3.33;1.45;;;24.80;99.90;;;;;;4986672;28;20185;-80
2021/08/14 08:44:09;;;;;;;2.50;1.65;;;25.00;99.90;;;;;;4986399;28;20193;-81
2021/08/14 08:46:36;;;;;;;2.65;1.75;;;25.30;99.90;;;;;;4986757;28;20725;-80
2021/08/14 08:49:03;;;;;;;2.20;1.30;;;25.60;99.90;;;;;;4988325;28;20772;-79
2021/08/14 08:51:31;;;;;;;7.30;1.67;;;25.70;99.90;;;;;;4988741;28;20188;-79
2021/08/14 08:53:57;;;;;;;2.58;1.27;;;25.70;99.90;;;;;;4987935;28;20300;-79
2021/08/14 08:56:22;;;;;;;3.83;1.67;;;25.70;99.90;;;;;;4988611;28;20335;-79
2021/08/14 08:58:48;;;;;;;3.70;1.23;;;25.70;99.90;;;;;;4979611;28;20323;-78
2021/08/14 09:01:14;;;;;;;1.67;1.05;;;25.30;99.90;;;;;;4989312;28;20868;-77
2021/08/14 09:03:40;;;;;;;1.75;1.30;;;25.20;99.90;;;;;;4987953;28;20847;-79
2021/08/14 09:06:05;;;;;;;2.97;1.38;;;25.00;99.90;;;;;;4988392;28;20488;-79
2021/08/14 09:08:31;;;;;;;11.93;2.58;;;24.90;99.90;;;;;;4988442;28;20620;-79
2021/08/14 09:11:11;;;;;;;4.13;1.85;;;25.00;99.90;;;;;;4988441;28;20203;-79
2021/08/14 09:13:39;;;;;;;6.53;2.95;;;25.10;99.90;;;;;;4988267;28;20187;-79
2021/08/14 09:16:22;;;;;;;4.20;1.63;;;25.60;99.90;;;;;;4988399;28;20212;-79
2021/08/14 09:18:56;;;;;;;3.22;1.45;;;26.20;99.90;;;;;;4986035;28;20235;-79
2021/08/14 09:21:29;;;;;;;3.20;1.35;;;26.30;99.90;;;;;;4988150;28;20216;-78
2021/08/14 09:23:54;;;;;;;2.17;1.65;;;26.30;99.30;;;;;;4984961;28;20621;-78
2021/08/14 09:26:20;;;;;;;3.47;1.67;;;26.30;99.90;;;;;;4986135;28;20196;-78
2021/08/14 09:28:46;;;;;;;6.85;2.65;;;26.10;99.90;;;;;;4985246;28;20937;-78
2021/08/14 09:31:12;;;;;;;4.18;1.50;;;26.00;99.90;;;;;;4986147;28;20192;-79
2021/08/14 09:33:38;;;;;;;2.47;1.45;;;25.80;99.50;;;;;;4985498;28;20192;-78
2021/08/14 09:36:06;;;;;;;2.15;1.70;;;25.50;99.90;;;;;;4985694;28;20218;-78
2021/08/14 09:38:47;;;;;;;2.20;1.88;;;25.20;99.90;;;;;;4985343;28;20274;-78
2021/08/14 09:41:18;;;;;;;2.58;1.48;;;24.90;99.90;;;;;;4986037;28;20212;-78
2021/08/14 09:43:44;;;;;;;2.25;1.70;;;24.90;99.90;;;;;;4985399;28;20212;-78
2021/08/14 09:46:11;;;;;;;2.22;1.80;;;24.90;99.90;;;;;;4986245;28;20238;-78
2021/08/14 09:48:37;;;;;;;1.63;1.45;;;24.70;99.90;;;;;;4984693;28;20216;-78
2021/08/14 09:51:04;;;;;;;4.70;2.25;;;24.70;99.90;;;;;;4984325;28;20184;-78
2021/08/14 09:53:30;;;;;;;2.53;1.73;;;24.60;99.90;;;;;;4984813;28;20198;-78
2021/08/14 09:56:05;;;;;;;3.08;1.70;;;24.70;99.90;;;;;;4985750;28;20216;-80
2021/08/14 09:58:31;;;;;;;3.40;1.80;;;24.70;99.90;;;;;;4970430;28;20203;-81
2021/08/14 10:00:59;;;;;;;1.67;1.48;;;25.00;99.90;;;;;;4985208;28;20188;-81
2021/08/14 10:03:27;;;;;;;3.17;1.55;;;25.30;99.90;;;;;;4985722;28;20188;-81
2021/08/14 10:05:54;;;;;;;2.88;1.65;;;25.60;99.90;;;;;;4984958;28;20185;-80
2021/08/14 10:08:20;;;;;;;3.05;1.85;;;25.80;99.90;;;;;;4984102;28;20210;-81
2021/08/14 10:10:46;;;;;;;2.35;1.45;;;26.00;99.90;;;;;;4986103;28;20185;-81
2021/08/14 10:13:13;;;;;;;2.30;1.73;;;25.90;99.90;;;;;;4985573;28;20191;-80
2021/08/14 10:15:39;;;;;;;2.72;1.83;;;26.30;99.90;;;;;;4984044;28;20403;-80
2021/08/14 10:18:05;;;;;;;2.47;1.67;;;26.60;99.70;;;;;;4984058;28;20251;-81
2021/08/14 10:20:32;;;;;;;3.53;2.05;;;26.60;99.20;;;;;;4985749;28;20206;-80
2021/08/14 10:23:05;;;;;;;3.45;1.80;;;26.90;98.80;;;;;;4985184;28;20188;-80
2021/08/14 10:25:35;;;;;;;2.15;1.58;;;27.20;99.30;;;;;;4984383;28;20184;-81
2021/08/14 10:28:07;;;;;;;2.25;1.58;;;27.30;98.50;;;;;;4983547;28;20244;-80
2021/08/14 10:30:39;;;;;;;4.38;1.50;;;27.00;98.20;;;;;;4986023;28;20192;-80
2021/08/14 10:33:06;;;;;;;1.70;1.45;;;26.40;98.70;;;;;;4984995;28;20701;-79
2021/08/14 10:35:36;;;;;;;3.67;1.67;;;26.30;99.10;;;;;;4984482;28;20212;-80
2021/08/14 10:38:02;;;;;;;3.30;2.05;;;26.60;99.80;;;;;;4984900;28;20344;-80
2021/08/14 10:40:58;;;;;;;2.92;1.80;;;26.50;99.30;;;;;;4984460;28;20432;-80
2021/08/14 10:43:57;;;;;;;3.72;2.25;;;26.60;99.40;;;;;;4984182;28;20180;-81
2021/08/14 10:46:48;;;;;;;2.10;1.60;;;26.40;99.00;;;;;;4985394;28;20682;-81
2021/08/14 10:49:32;;;;;;;5.22;1.90;;;26.40;99.20;;;;;;4983679;28;20607;-79
2021/08/14 10:52:00;;;;;;;5.35;2.30;;;26.50;99.20;;;;;;4984141;28;20198;-80
2021/08/14 10:54:29;;;;;;;2.78;1.55;;;26.50;99.00;;;;;;4984947;28;20554;-79
2021/08/14 10:57:03;;;;;;;2.38;1.55;;;26.60;98.90;;;;;;4983581;28;20552;-80
2021/08/14 10:59:35;;;;;;;3.35;2.08;;;26.50;98.70;;;;;;4983330;28;20185;-80
2021/08/14 11:02:20;;;;;;;2.25;1.70;;;26.70;99.90;;;;;;4983394;28;20603;-80
2021/08/14 11:04:56;;;;;;;5.50;2.10;;;26.90;99.20;;;;;;4976083;28;20196;-80
2021/08/14 11:07:21;;;;;;;2.67;1.90;;;26.50;99.50;;;;;;4984596;28;20487;-80
2021/08/14 11:09:48;;;;;;;1.80;1.70;;;26.50;99.10;;;;;;4983408;28;20188;-81
2021/08/14 11:12:34;;;;;;;3.55;1.83;;;26.70;99.90;;;;;;4983027;28;20196;-80
2021/08/14 11:15:23;;;;;;;2.08;1.75;;;26.70;99.90;;;;;;4984054;28;20788;-80
2021/08/14 11:17:51;;;;;;;2.80;2.13;;;26.90;99.90;;;;;;4982377;28;20212;-80
2021/08/14 11:20:20;;;;;;;2.58;2.03;;;27.00;99.80;;;;;;4985934;28;20278;-80
2021/08/14 11:22:46;;;;;;;4.53;2.20;;;27.00;99.00;;;;;;4984848;28;20288;-80
2021/08/14 11:25:28;;;;;;;3.13;1.77;;;26.90;99.40;;;;;;4984972;28;20180;-80
2021/08/14 11:27:59;;;;;;;2.95;1.90;;;27.20;99.70;;;;;;4984876;28;20266;-80
2021/08/14 11:30:31;;;;;;;2.70;2.22;;;27.40;98.50;;;;;;4981049;28;20577;-80
2021/08/14 11:32:59;;;;;;;2.38;1.95;;;27.60;98.90;;;;;;4984393;28;20188;-82
2021/08/14 11:35:25;;;;;;;2.97;2.08;;;27.60;98.50;;;;;;4984944;28;20627;-79
2021/08/14 11:37:53;;;;;;;1.90;1.70;;;27.70;97.30;;;;;;4983134;28;20208;-79
2021/08/14 11:40:21;;;;;;;2.88;1.92;;;27.50;97.50;;;;;;4982972;28;20207;-77
2021/08/14 11:42:55;;;;;;;3.45;2.20;;;27.30;96.90;;;;;;4984171;28;20242;-78
2021/08/14 11:45:20;;;;;;;2.90;2.10;;;27.30;97.70;;;;;;4982917;28;20884;-80
2021/08/14 11:47:46;;;;;;;3.03;2.25;;;27.30;98.10;;;;;;4986676;28;20219;-78
2021/08/14 11:50:12;;;;;;;5.95;1.88;;;27.30;97.70;;;;;;4987023;28;20184;-79
2021/08/14 11:52:37;;;;;;;3.60;2.33;;;27.30;97.10;;;;;;4987811;28;20195;-80
2021/08/14 11:55:06;;;;;;;3.90;1.85;;;27.00;96.50;;;;;;4986904;28;20210;-79
2021/08/14 11:57:40;;;;;;;2.58;2.00;;;27.00;97.20;;;;;;4988709;28;20200;-79
2021/08/14 12:00:37;;;;;;;3.53;2.22;;;27.10;97.10;;;;;;4987217;28;20198;-78
2021/08/14 12:03:11;;;;;;;2.63;2.00;;;27.20;96.30;;;;;;4985534;28;20194;-79
2021/08/14 12:05:39;;;;;;;2.42;2.22;;;27.40;96.60;;;;;;4987770;28;20206;-79
2021/08/14 12:08:07;;;;;;;3.53;2.10;;;27.30;96.40;;;;;;4988882;28;20216;-79
2021/08/14 12:10:33;;;;;;;2.92;1.70;;;27.40;96.70;;;;;;4988235;28;20195;-81
2021/08/14 12:13:01;;;;;;;2.60;2.03;;;27.40;96.20;;;;;;4985888;28;20195;-79
2021/08/14 12:15:41;;;;;;;3.25;1.88;;;27.50;95.90;;;;;;4986866;28;20195;-79
2021/08/14 12:18:08;;;;;;;1.73;1.60;;;27.70;95.50;;;;;;4989149;28;20676;-80
2021/08/14 12:20:41;;;;;;;2.95;1.70;;;27.70;94.30;;;;;;4988452;28;20526;-80
2021/08/14 12:23:26;;;;;;;2.33;1.60;;;27.90;94.40;;;;;;4985514;28;20440;-79
2021/08/14 12:26:04;;;;;;;1.98;1.77;;;28.00;94.00;;;;;;4985199;28;20195;-79
2021/08/14 12:28:35;;;;;;;4.55;2.15;;;28.10;93.90;;;;;;4986719;28;20670;-80
2021/08/14 12:31:13;;;;;;;4.35;1.90;;;28.10;93.50;;;;;;4985531;28;20556;-80
2021/08/14 12:33:46;;;;;;;3.28;2.17;;;28.20;93.70;;;;;;4985162;28;20184;-79
2021/08/14 12:36:12;;;;;;;2.55;1.77;;;28.20;94.00;;;;;;4985414;28;20749;-79
2021/08/14 12:38:50;;;;;;;3.10;2.38;;;28.20;93.50;;;;;;4984842;28;20290;-80
2021/08/14 12:41:17;;;;;;;2.85;1.70;;;28.20;94.10;;;;;;4985141;28;21003;-79
2021/08/14 12:43:47;;;;;;;3.47;2.00;;;28.30;93.80;;;;;;4987688;28;20283;-80
2021/08/14 12:46:21;;;;;;;2.63;2.00;;;28.20;93.20;;;;;;4985281;28;20188;-79
2021/08/14 12:49:15;;;;;;;4.88;2.38;;;28.00;93.30;;;;;;4985700;28;20283;-79